Springfield, Wisconsin
Current Conditions -  °F | °C
As of 9:55 AM on Monday 24 Nov 2014 (Local Time) from KBUU Reporting Station
Unknown Precip Unknown Precip  
Wind Chill: 30°   Ceiling: 1700
Heat Index: 38°   Visibility: 2.5mi
Dew Point: 37°   Wind: 14mph
Humidity: 97%   Direction: 270°W
Pressure: 29.15"   Gusts: 17mph
Location:  42.64°N, 88.41°W
Report Text: KBUU 241555Z AUTO 27012G15KT 2 1/2SM UP SCT006 BKN017 OVC029 04/03 A2915 RMK AO2 P0003 T00350030
Loading
Personal Weather Stations






























Interactive Weather Map New forecast layout! Learn more

10-Day Weather Forecast

Advertisements
Track Severe Weather on mobile